AAL29 KSAV-KCLT
Flight info
| Callsign | AAL29 |
|---|---|
| Flight time | 0h 47m |
| Altitude | 23000 |
| Route | JROSS FLLGG STOCR4 |
| Aircraft | A320/M-SDE3FGHIRWY/LB1 |
Departure
| Time | 2026-05-05 19:31 |
|---|---|
| Airport | Savannah Hilton Head International Airport (KSAV) |
Arrival
| Time | 2026-05-05 20:19 |
|---|---|
| Airport | Charlotte Douglas International Airport (KCLT) |
| Time | Latitude | Longitude | Altitude | Speed | Heading |
|---|---|---|---|---|---|
| 2026-05-05 18:46 | 32.13607 | -81.20762 | 54 ft | 0 kts | 180° |
| 2026-05-05 19:18 | 32.13608 | -81.20762 | 54 ft | 1 kts | 180° |
| 2026-05-05 19:18 | 32.13632 | -81.20762 | 54 ft | 4 kts | 173° |
| 2026-05-05 19:18 | 32.13658 | -81.20769 | 54 ft | 4 kts | 150° |
| 2026-05-05 19:18 | 32.13673 | -81.20788 | 54 ft | 3 kts | 94° |
| 2026-05-05 19:19 | 32.13674 | -81.20791 | 54 ft | 0 kts | 91° |
| 2026-05-05 19:22 | 32.13673 | -81.20777 | 54 ft | 2 kts | 91° |
| 2026-05-05 19:22 | 32.13673 | -81.20753 | 54 ft | 3 kts | 91° |
| 2026-05-05 19:22 | 32.13673 | -81.20728 | 54 ft | 5 kts | 91° |
| 2026-05-05 19:22 | 32.13672 | -81.20658 | 54 ft | 11 kts | 91° |
| 2026-05-05 19:23 | 32.13671 | -81.20565 | 51 ft | 12 kts | 90° |
| 2026-05-05 19:23 | 32.13671 | -81.20463 | 54 ft | 13 kts | 90° |
| 2026-05-05 19:23 | 32.13666 | -81.20360 | 54 ft | 12 kts | 113° |
| 2026-05-05 19:23 | 32.13594 | -81.20333 | 50 ft | 12 kts | 178° |
| 2026-05-05 19:24 | 32.13500 | -81.20332 | 54 ft | 15 kts | 180° |
| 2026-05-05 19:24 | 32.13390 | -81.20332 | 54 ft | 17 kts | 180° |
| 2026-05-05 19:24 | 32.13266 | -81.20331 | 53 ft | 18 kts | 180° |
| 2026-05-05 19:24 | 32.13138 | -81.20329 | 53 ft | 16 kts | 180° |
| 2026-05-05 19:25 | 32.13064 | -81.20332 | 53 ft | 8 kts | 190° |
| 2026-05-05 19:25 | 32.13037 | -81.20379 | 52 ft | 7 kts | 263° |
| 2026-05-05 19:25 | 32.13036 | -81.20434 | 49 ft | 6 kts | 270° |
| 2026-05-05 19:25 | 32.13036 | -81.20483 | 49 ft | 6 kts | 271° |
| 2026-05-05 19:26 | 32.13037 | -81.20545 | 50 ft | 10 kts | 271° |
| 2026-05-05 19:26 | 32.13038 | -81.20645 | 52 ft | 13 kts | 270° |
| 2026-05-05 19:26 | 32.13039 | -81.20741 | 52 ft | 11 kts | 270° |
| 2026-05-05 19:26 | 32.13040 | -81.20824 | 52 ft | 8 kts | 270° |
| 2026-05-05 19:27 | 32.13040 | -81.20885 | 52 ft | 7 kts | 270° |
| 2026-05-05 19:27 | 32.13041 | -81.20939 | 52 ft | 6 kts | 270° |
| 2026-05-05 19:27 | 32.13042 | -81.20988 | 52 ft | 6 kts | 272° |
| 2026-05-05 19:27 | 32.13043 | -81.21032 | 52 ft | 5 kts | 272° |
| 2026-05-05 19:28 | 32.13044 | -81.21072 | 52 ft | 5 kts | 269° |
| 2026-05-05 19:28 | 32.13043 | -81.21153 | 52 ft | 17 kts | 270° |
| 2026-05-05 19:28 | 32.13045 | -81.21290 | 52 ft | 16 kts | 271° |
| 2026-05-05 19:28 | 32.13046 | -81.21415 | 52 ft | 15 kts | 270° |
| 2026-05-05 19:29 | 32.13047 | -81.21531 | 52 ft | 13 kts | 270° |
| 2026-05-05 19:29 | 32.13048 | -81.21635 | 52 ft | 12 kts | 270° |
| 2026-05-05 19:29 | 32.13049 | -81.21731 | 50 ft | 11 kts | 270° |
| 2026-05-05 19:29 | 32.13048 | -81.21808 | 52 ft | 8 kts | 266° |
| 2026-05-05 19:30 | 32.13018 | -81.21855 | 49 ft | 8 kts | 202° |
| 2026-05-05 19:30 | 32.12944 | -81.21862 | 44 ft | 15 kts | 182° |
| 2026-05-05 19:30 | 32.12877 | -81.21857 | 36 ft | 3 kts | 142° |
| 2026-05-05 19:30 | 32.12874 | -81.21824 | 39 ft | 10 kts | 90° |
| 2026-05-05 19:31 | 32.12871 | -81.21476 | 40 ft | 80 kts | 91° |
| 2026-05-05 19:31 | 32.12863 | -81.20559 | 42 ft | 141 kts | 91° |
| 2026-05-05 19:31 | 32.12854 | -81.19265 | 399 ft | 161 kts | 91° |
| 2026-05-05 19:31 | 32.12851 | -81.17938 | 1183 ft | 161 kts | 93° |
| 2026-05-05 19:32 | 32.12883 | -81.16615 | 1987 ft | 166 kts | 81° |
| 2026-05-05 19:32 | 32.13571 | -81.15435 | 2419 ft | 193 kts | 39° |
| 2026-05-05 19:32 | 32.14731 | -81.14458 | 2802 ft | 217 kts | 39° |
| 2026-05-05 19:32 | 32.16014 | -81.13329 | 3277 ft | 242 kts | 39° |
| 2026-05-05 19:33 | 32.17417 | -81.12067 | 3825 ft | 264 kts | 39° |
| 2026-05-05 19:33 | 32.18902 | -81.10723 | 4682 ft | 273 kts | 39° |
| 2026-05-05 19:33 | 32.20421 | -81.09346 | 5644 ft | 277 kts | 39° |
| 2026-05-05 19:33 | 32.21962 | -81.07948 | 6607 ft | 280 kts | 39° |
| 2026-05-05 19:34 | 32.23520 | -81.06533 | 7506 ft | 285 kts | 39° |
| 2026-05-05 19:34 | 32.25104 | -81.05087 | 8387 ft | 291 kts | 39° |
| 2026-05-05 19:34 | 32.26721 | -81.03608 | 9252 ft | 297 kts | 39° |
| 2026-05-05 19:35 | 32.30084 | -81.00522 | 10547 ft | 324 kts | 38° |
| 2026-05-05 19:35 | 32.31921 | -80.98837 | 10957 ft | 343 kts | 38° |
| 2026-05-05 19:35 | 32.33829 | -80.97089 | 11669 ft | 351 kts | 37° |
| 2026-05-05 19:35 | 32.35774 | -80.95310 | 12434 ft | 356 kts | 37° |
| 2026-05-05 19:36 | 32.37744 | -80.93504 | 13217 ft | 360 kts | 37° |
| 2026-05-05 19:36 | 32.39732 | -80.91675 | 13967 ft | 364 kts | 37° |
| 2026-05-05 19:36 | 32.41740 | -80.89825 | 14709 ft | 368 kts | 36° |
| 2026-05-05 19:36 | 32.43770 | -80.87956 | 15436 ft | 371 kts | 36° |
| 2026-05-05 19:37 | 32.45819 | -80.86073 | 16153 ft | 374 kts | 36° |
| 2026-05-05 19:37 | 32.47887 | -80.84171 | 16823 ft | 378 kts | 35° |
| 2026-05-05 19:37 | 32.49976 | -80.82248 | 17485 ft | 382 kts | 35° |
| 2026-05-05 19:37 | 32.52085 | -80.80309 | 18147 ft | 385 kts | 35° |
| 2026-05-05 19:38 | 32.54218 | -80.78349 | 18778 ft | 389 kts | 35° |
| 2026-05-05 19:38 | 32.56360 | -80.76375 | 19405 ft | 392 kts | 34° |
| 2026-05-05 19:38 | 32.58525 | -80.74375 | 20037 ft | 396 kts | 34° |
| 2026-05-05 19:38 | 32.60702 | -80.72363 | 20641 ft | 399 kts | 34° |
| 2026-05-05 19:39 | 32.62899 | -80.70330 | 21243 ft | 402 kts | 34° |
| 2026-05-05 19:39 | 32.65110 | -80.68283 | 21813 ft | 405 kts | 34° |
| 2026-05-05 19:39 | 32.67314 | -80.66246 | 22385 ft | 408 kts | 34° |
| 2026-05-05 19:39 | 32.69593 | -80.64142 | 22868 ft | 411 kts | 33° |
| 2026-05-05 19:40 | 32.71987 | -80.62339 | 23005 ft | 403 kts | 22° |
| 2026-05-05 19:40 | 32.74495 | -80.61043 | 23027 ft | 388 kts | 18° |
| 2026-05-05 19:40 | 32.76978 | -80.59829 | 23025 ft | 384 kts | 18° |
| 2026-05-05 19:40 | 32.79449 | -80.58624 | 23017 ft | 384 kts | 18° |
| 2026-05-05 19:41 | 32.81918 | -80.57419 | 23016 ft | 383 kts | 18° |
| 2026-05-05 19:41 | 32.84385 | -80.56211 | 23019 ft | 383 kts | 18° |
| 2026-05-05 19:41 | 32.86849 | -80.55003 | 23018 ft | 383 kts | 18° |
| 2026-05-05 19:41 | 32.89318 | -80.53791 | 23026 ft | 384 kts | 18° |
| 2026-05-05 19:42 | 32.91785 | -80.52579 | 23019 ft | 384 kts | 18° |
| 2026-05-05 19:42 | 32.94225 | -80.51378 | 23016 ft | 384 kts | 18° |
| 2026-05-05 19:42 | 32.96690 | -80.50163 | 23017 ft | 384 kts | 18° |
| 2026-05-05 19:42 | 32.99157 | -80.48944 | 23030 ft | 384 kts | 18° |
| 2026-05-05 19:43 | 33.01653 | -80.47712 | 23032 ft | 384 kts | 18° |
| 2026-05-05 19:43 | 33.04120 | -80.46495 | 23025 ft | 384 kts | 18° |
| 2026-05-05 19:43 | 33.06558 | -80.45293 | 23017 ft | 384 kts | 18° |
| 2026-05-05 19:43 | 33.09026 | -80.44074 | 23012 ft | 384 kts | 18° |
| 2026-05-05 19:44 | 33.11493 | -80.42855 | 23037 ft | 384 kts | 18° |
| 2026-05-05 19:44 | 33.13994 | -80.41618 | 23025 ft | 384 kts | 18° |
| 2026-05-05 19:44 | 33.16463 | -80.40394 | 23017 ft | 384 kts | 18° |
| 2026-05-05 19:44 | 33.18898 | -80.39187 | 23012 ft | 384 kts | 18° |
| 2026-05-05 19:45 | 33.21400 | -80.37948 | 23006 ft | 384 kts | 18° |
| 2026-05-05 19:45 | 33.23840 | -80.36736 | 23005 ft | 385 kts | 18° |
| 2026-05-05 19:45 | 33.26309 | -80.35504 | 23001 ft | 385 kts | 18° |
| 2026-05-05 19:45 | 33.28780 | -80.34272 | 23001 ft | 385 kts | 18° |
| 2026-05-05 19:46 | 33.31252 | -80.33044 | 23015 ft | 384 kts | 18° |
| 2026-05-05 19:46 | 33.33723 | -80.31818 | 23010 ft | 385 kts | 18° |
| 2026-05-05 19:46 | 33.36197 | -80.30591 | 23006 ft | 385 kts | 18° |
| 2026-05-05 19:46 | 33.38669 | -80.29360 | 23008 ft | 385 kts | 19° |
| 2026-05-05 19:47 | 33.41142 | -80.28124 | 23034 ft | 385 kts | 19° |
| 2026-05-05 19:47 | 33.43618 | -80.26887 | 23017 ft | 385 kts | 19° |
| 2026-05-05 19:47 | 33.46093 | -80.25651 | 23013 ft | 385 kts | 19° |
| 2026-05-05 19:47 | 33.48567 | -80.24418 | 23014 ft | 385 kts | 19° |
| 2026-05-05 19:48 | 33.51038 | -80.23184 | 23038 ft | 385 kts | 19° |
| 2026-05-05 19:48 | 33.53513 | -80.21948 | 23026 ft | 385 kts | 19° |
| 2026-05-05 19:48 | 33.55993 | -80.20708 | 23014 ft | 386 kts | 19° |
| 2026-05-05 19:48 | 33.58469 | -80.19468 | 23009 ft | 386 kts | 19° |
| 2026-05-05 19:49 | 33.60951 | -80.18223 | 23007 ft | 386 kts | 19° |
| 2026-05-05 19:49 | 33.62591 | -80.17400 | 23006 ft | 386 kts | 19° |
| 2026-05-05 19:49 | 33.65910 | -80.15737 | 23003 ft | 386 kts | 19° |
| 2026-05-05 19:49 | 33.68363 | -80.14505 | 23004 ft | 385 kts | 19° |
| 2026-05-05 19:50 | 33.70838 | -80.13261 | 23029 ft | 385 kts | 19° |
| 2026-05-05 19:50 | 33.73318 | -80.12018 | 23016 ft | 386 kts | 19° |
| 2026-05-05 19:50 | 33.75796 | -80.10776 | 23009 ft | 386 kts | 19° |
| 2026-05-05 19:50 | 33.78275 | -80.09529 | 23005 ft | 386 kts | 19° |
| 2026-05-05 19:51 | 33.80753 | -80.08283 | 22998 ft | 386 kts | 19° |
| 2026-05-05 19:51 | 33.83232 | -80.07036 | 22994 ft | 386 kts | 19° |
| 2026-05-05 19:51 | 33.85709 | -80.05789 | 22989 ft | 386 kts | 19° |
| 2026-05-05 19:51 | 33.88185 | -80.04543 | 22987 ft | 386 kts | 19° |
| 2026-05-05 19:52 | 33.90664 | -80.03293 | 22985 ft | 386 kts | 19° |
| 2026-05-05 19:52 | 33.93142 | -80.02040 | 22984 ft | 386 kts | 19° |
| 2026-05-05 19:52 | 33.95620 | -80.00798 | 22983 ft | 385 kts | 17° |
| 2026-05-05 19:52 | 33.98191 | -79.99982 | 22981 ft | 380 kts | 4° |
| 2026-05-05 19:53 | 34.00814 | -79.99846 | 22980 ft | 375 kts | 352° |
| 2026-05-05 19:53 | 34.03364 | -80.00368 | 22976 ft | 370 kts | 340° |
| 2026-05-05 19:53 | 34.05750 | -80.01499 | 22976 ft | 367 kts | 330° |
| 2026-05-05 19:53 | 34.08033 | -80.02854 | 22975 ft | 367 kts | 331° |
| 2026-05-05 19:54 | 34.10327 | -80.04210 | 22974 ft | 367 kts | 331° |
| 2026-05-05 19:54 | 34.12620 | -80.05560 | 22976 ft | 367 kts | 331° |
| 2026-05-05 19:54 | 34.14920 | -80.06912 | 22976 ft | 367 kts | 331° |
| 2026-05-05 19:54 | 34.17216 | -80.08264 | 22976 ft | 367 kts | 331° |
| 2026-05-05 19:55 | 34.19513 | -80.09617 | 22977 ft | 367 kts | 331° |
| 2026-05-05 19:55 | 34.21811 | -80.10971 | 22978 ft | 367 kts | 331° |
| 2026-05-05 19:55 | 34.24109 | -80.12327 | 22977 ft | 367 kts | 331° |
| 2026-05-05 19:55 | 34.26408 | -80.13687 | 22978 ft | 367 kts | 331° |
| 2026-05-05 19:56 | 34.28705 | -80.15049 | 22981 ft | 367 kts | 331° |
| 2026-05-05 19:56 | 34.31001 | -80.16409 | 22979 ft | 367 kts | 331° |
| 2026-05-05 19:56 | 34.33296 | -80.17765 | 22978 ft | 367 kts | 331° |
| 2026-05-05 19:56 | 34.35592 | -80.19124 | 22977 ft | 367 kts | 331° |
| 2026-05-05 19:57 | 34.37889 | -80.20486 | 22975 ft | 367 kts | 331° |
| 2026-05-05 19:57 | 34.39407 | -80.21388 | 22975 ft | 367 kts | 330° |
| 2026-05-05 19:57 | 34.42549 | -80.23261 | 22982 ft | 383 kts | 330° |
| 2026-05-05 19:57 | 34.44946 | -80.24689 | 22981 ft | 385 kts | 331° |
| 2026-05-05 19:58 | 34.47358 | -80.26123 | 22981 ft | 386 kts | 331° |
| 2026-05-05 19:58 | 34.49769 | -80.27558 | 22979 ft | 386 kts | 331° |
| 2026-05-05 19:58 | 34.52180 | -80.28995 | 22981 ft | 386 kts | 331° |
| 2026-05-05 19:58 | 34.54592 | -80.30438 | 22976 ft | 386 kts | 330° |
| 2026-05-05 19:59 | 34.57001 | -80.31879 | 22971 ft | 386 kts | 331° |
| 2026-05-05 19:59 | 34.59412 | -80.33321 | 22972 ft | 386 kts | 329° |
| 2026-05-05 19:59 | 34.61652 | -80.35074 | 22972 ft | 382 kts | 319° |
| 2026-05-05 19:59 | 34.63738 | -80.37076 | 22971 ft | 382 kts | 319° |
| 2026-05-05 20:00 | 34.65777 | -80.39037 | 22949 ft | 372 kts | 319° |
| 2026-05-05 20:00 | 34.67794 | -80.40977 | 22760 ft | 360 kts | 319° |
| 2026-05-05 20:00 | 34.69732 | -80.42846 | 22294 ft | 351 kts | 319° |
| 2026-05-05 20:00 | 34.71633 | -80.44680 | 21474 ft | 347 kts | 319° |
| 2026-05-05 20:01 | 34.73503 | -80.46502 | 20668 ft | 342 kts | 318° |
| 2026-05-05 20:01 | 34.75342 | -80.48312 | 19847 ft | 339 kts | 318° |
| 2026-05-05 20:01 | 34.77164 | -80.50113 | 19024 ft | 336 kts | 317° |
| 2026-05-05 20:01 | 34.78966 | -80.51896 | 18263 ft | 331 kts | 317° |
| 2026-05-05 20:02 | 34.80727 | -80.53632 | 17715 ft | 321 kts | 317° |
| 2026-05-05 20:02 | 34.82452 | -80.55332 | 17030 ft | 318 kts | 317° |
| 2026-05-05 20:02 | 34.84164 | -80.57023 | 16307 ft | 315 kts | 317° |
| 2026-05-05 20:02 | 34.85856 | -80.58708 | 15600 ft | 314 kts | 316° |
| 2026-05-05 20:03 | 34.87502 | -80.60380 | 14920 ft | 313 kts | 316° |
| 2026-05-05 20:03 | 34.89171 | -80.62092 | 14502 ft | 313 kts | 316° |
| 2026-05-05 20:03 | 34.90826 | -80.63792 | 13969 ft | 309 kts | 315° |
| 2026-05-05 20:03 | 34.92462 | -80.65471 | 13258 ft | 307 kts | 316° |
| 2026-05-05 20:04 | 34.94092 | -80.67140 | 12553 ft | 306 kts | 315° |
| 2026-05-05 20:04 | 34.95170 | -80.68246 | 12077 ft | 305 kts | 315° |
| 2026-05-05 20:04 | 34.96799 | -80.69917 | 11580 ft | 306 kts | 315° |
| 2026-05-05 20:04 | 34.98420 | -80.71576 | 11372 ft | 302 kts | 315° |
| 2026-05-05 20:05 | 35.00028 | -80.73222 | 11192 ft | 302 kts | 315° |
| 2026-05-05 20:05 | 35.01636 | -80.74871 | 10990 ft | 301 kts | 315° |
| 2026-05-05 20:05 | 35.03226 | -80.76533 | 10857 ft | 301 kts | 315° |
| 2026-05-05 20:05 | 35.04800 | -80.78209 | 10709 ft | 300 kts | 314° |
| 2026-05-05 20:06 | 35.06370 | -80.79891 | 10569 ft | 300 kts | 315° |
| 2026-05-05 20:06 | 35.08092 | -80.81341 | 10431 ft | 303 kts | 330° |
| 2026-05-05 20:06 | 35.10065 | -80.82150 | 10289 ft | 298 kts | 347° |
| 2026-05-05 20:06 | 35.12101 | -80.82381 | 10167 ft | 289 kts | 353° |
| 2026-05-05 20:07 | 35.14070 | -80.82543 | 10033 ft | 278 kts | 353° |
| 2026-05-05 20:07 | 35.15962 | -80.82699 | 10000 ft | 265 kts | 353° |
| 2026-05-05 20:07 | 35.17770 | -80.82849 | 9998 ft | 259 kts | 353° |
| 2026-05-05 20:07 | 35.19553 | -80.83000 | 10007 ft | 257 kts | 353° |
| 2026-05-05 20:08 | 35.21335 | -80.83151 | 10007 ft | 256 kts | 353° |
| 2026-05-05 20:08 | 35.23115 | -80.83304 | 10012 ft | 256 kts | 353° |
| 2026-05-05 20:08 | 35.24895 | -80.83450 | 10007 ft | 257 kts | 353° |
| 2026-05-05 20:08 | 35.26681 | -80.83593 | 9993 ft | 259 kts | 353° |
| 2026-05-05 20:09 | 35.28506 | -80.83748 | 9385 ft | 266 kts | 353° |
| 2026-05-05 20:09 | 35.30374 | -80.83923 | 8673 ft | 272 kts | 353° |
| 2026-05-05 20:09 | 35.32264 | -80.84112 | 8159 ft | 269 kts | 353° |
| 2026-05-05 20:09 | 35.34078 | -80.84300 | 7944 ft | 254 kts | 353° |
| 2026-05-05 20:10 | 35.35786 | -80.84480 | 7764 ft | 238 kts | 352° |
| 2026-05-05 20:10 | 35.37395 | -80.84654 | 7627 ft | 228 kts | 352° |
| 2026-05-05 20:10 | 35.38917 | -80.84820 | 7516 ft | 214 kts | 352° |
| 2026-05-05 20:10 | 35.40391 | -80.84982 | 7363 ft | 210 kts | 352° |
| 2026-05-05 20:11 | 35.41844 | -80.85141 | 7226 ft | 206 kts | 352° |
| 2026-05-05 20:11 | 35.43230 | -80.85333 | 7109 ft | 195 kts | 342° |
| 2026-05-05 20:11 | 35.44399 | -80.86054 | 6871 ft | 185 kts | 311° |
| 2026-05-05 20:11 | 35.45107 | -80.87316 | 6536 ft | 179 kts | 283° |
| 2026-05-05 20:12 | 35.45239 | -80.88800 | 6166 ft | 174 kts | 257° |
| 2026-05-05 20:12 | 35.45063 | -80.90290 | 5831 ft | 177 kts | 257° |
| 2026-05-05 20:12 | 35.44895 | -80.91769 | 5595 ft | 174 kts | 257° |
| 2026-05-05 20:12 | 35.44662 | -80.93207 | 5237 ft | 173 kts | 246° |
| 2026-05-05 20:13 | 35.44074 | -80.94497 | 4705 ft | 181 kts | 226° |
| 2026-05-05 20:13 | 35.43047 | -80.95370 | 4393 ft | 177 kts | 201° |
| 2026-05-05 20:13 | 35.41881 | -80.95640 | 4260 ft | 167 kts | 183° |
| 2026-05-05 20:13 | 35.40749 | -80.95551 | 4107 ft | 159 kts | 174° |
| 2026-05-05 20:14 | 35.39703 | -80.95287 | 3985 ft | 149 kts | 171° |
| 2026-05-05 20:14 | 35.38709 | -80.95021 | 3821 ft | 143 kts | 174° |
| 2026-05-05 20:14 | 35.37738 | -80.94864 | 3582 ft | 140 kts | 176° |
| 2026-05-05 20:14 | 35.36773 | -80.94778 | 3371 ft | 137 kts | 179° |
| 2026-05-05 20:15 | 35.35836 | -80.94717 | 3247 ft | 134 kts | 180° |
| 2026-05-05 20:15 | 35.34912 | -80.94668 | 3114 ft | 132 kts | 178° |
| 2026-05-05 20:15 | 35.33995 | -80.94569 | 2953 ft | 132 kts | 178° |
| 2026-05-05 20:15 | 35.33080 | -80.94491 | 2815 ft | 131 kts | 178° |
| 2026-05-05 20:16 | 35.32159 | -80.94411 | 2685 ft | 133 kts | 178° |
| 2026-05-05 20:16 | 35.31234 | -80.94342 | 2427 ft | 132 kts | 178° |
| 2026-05-05 20:16 | 35.30336 | -80.94296 | 2345 ft | 128 kts | 179° |
| 2026-05-05 20:16 | 35.29435 | -80.94258 | 2244 ft | 130 kts | 178° |
| 2026-05-05 20:17 | 35.28536 | -80.94190 | 2005 ft | 129 kts | 175° |
| 2026-05-05 20:17 | 35.27645 | -80.94063 | 1787 ft | 129 kts | 174° |
| 2026-05-05 20:17 | 35.26760 | -80.93954 | 1615 ft | 127 kts | 175° |
| 2026-05-05 20:17 | 35.25869 | -80.93885 | 1450 ft | 128 kts | 177° |
| 2026-05-05 20:18 | 35.24980 | -80.93838 | 1273 ft | 128 kts | 177° |
| 2026-05-05 20:18 | 35.24084 | -80.93753 | 1141 ft | 133 kts | 180° |
| 2026-05-05 20:18 | 35.23161 | -80.93668 | 918 ft | 132 kts | 177° |
| 2026-05-05 20:18 | 35.22262 | -80.93600 | 749 ft | 128 kts | 178° |
| 2026-05-05 20:19 | 35.21494 | -80.93535 | 735 ft | 88 kts | 176° |
| 2026-05-05 20:19 | 35.21052 | -80.93496 | 734 ft | 38 kts | 175° |
| 2026-05-05 20:19 | 35.20901 | -80.93484 | 734 ft | 19 kts | 175° |
| 2026-05-05 20:19 | 35.20801 | -80.93474 | 736 ft | 10 kts | 176° |
| 2026-05-05 20:20 | 35.20774 | -80.93479 | 736 ft | 2 kts | 218° |
| 2026-05-05 20:20 | 35.20772 | -80.93497 | 736 ft | 4 kts | 270° |
| 2026-05-05 20:20 | 35.20772 | -80.93532 | 735 ft | 3 kts | 270° |
| 2026-05-05 20:20 | 35.20772 | -80.93557 | 734 ft | 1 kts | 269° |
| 2026-05-05 20:21 | 35.20772 | -80.93578 | 733 ft | 4 kts | 269° |
| 2026-05-05 20:21 | 35.20780 | -80.93607 | 733 ft | 2 kts | 325° |
| 2026-05-05 20:21 | 35.20799 | -80.93608 | 733 ft | 3 kts | 355° |
| 2026-05-05 20:21 | 35.20830 | -80.93611 | 733 ft | 4 kts | 356° |
| 2026-05-05 20:22 | 35.20858 | -80.93614 | 733 ft | 4 kts | 356° |
| 2026-05-05 20:22 | 35.20880 | -80.93616 | 733 ft | 3 kts | 356° |
| 2026-05-05 20:22 | 35.20904 | -80.93617 | 733 ft | 3 kts | 356° |
| 2026-05-05 20:22 | 35.20924 | -80.93619 | 733 ft | 5 kts | 356° |
| 2026-05-05 20:23 | 35.21001 | -80.93625 | 733 ft | 13 kts | 356° |
| 2026-05-05 20:23 | 35.21091 | -80.93633 | 733 ft | 13 kts | 356° |
| 2026-05-05 20:23 | 35.21175 | -80.93640 | 733 ft | 12 kts | 356° |
| 2026-05-05 20:23 | 35.21252 | -80.93647 | 733 ft | 11 kts | 356° |
| 2026-05-05 20:24 | 35.21323 | -80.93653 | 733 ft | 10 kts | 356° |
| 2026-05-05 20:24 | 35.21387 | -80.93659 | 733 ft | 9 kts | 356° |
| 2026-05-05 20:24 | 35.21447 | -80.93664 | 732 ft | 8 kts | 356° |
| 2026-05-05 20:24 | 35.21505 | -80.93669 | 733 ft | 8 kts | 356° |
| 2026-05-05 20:25 | 35.21547 | -80.93673 | 731 ft | 5 kts | 351° |
| 2026-05-05 20:25 | 35.21576 | -80.93695 | 732 ft | 5 kts | 317° |
| 2026-05-05 20:25 | 35.21598 | -80.93725 | 732 ft | 5 kts | 312° |
| 2026-05-05 20:25 | 35.21636 | -80.93779 | 732 ft | 9 kts | 309° |
| 2026-05-05 20:26 | 35.21671 | -80.93830 | 733 ft | 7 kts | 310° |
| 2026-05-05 20:26 | 35.21702 | -80.93872 | 733 ft | 7 kts | 316° |
| 2026-05-05 20:26 | 35.21740 | -80.93913 | 731 ft | 7 kts | 318° |
| 2026-05-05 20:26 | 35.21777 | -80.93948 | 731 ft | 4 kts | 336° |
| 2026-05-05 20:27 | 35.21801 | -80.93945 | 732 ft | 6 kts | 19° |
| 2026-05-05 20:27 | 35.21853 | -80.93902 | 732 ft | 10 kts | 4° |
| 2026-05-05 20:27 | 35.21886 | -80.93920 | 732 ft | 5 kts | 333° |
| 2026-05-05 20:27 | 35.21934 | -80.93951 | 732 ft | 8 kts | 331° |
| 2026-05-05 20:28 | 35.21971 | -80.93966 | 732 ft | 4 kts | 349° |
| 2026-05-05 20:28 | 35.21993 | -80.93969 | 732 ft | 3 kts | 355° |
| 2026-05-05 20:28 | 35.22007 | -80.93971 | 732 ft | 1 kts | 355° |
| 2026-05-05 20:28 | 35.22011 | -80.93971 | 732 ft | 0 kts | 356° |